createdAt,value
2023-04-30T00:00:25.125Z,92865.00
2023-04-30T00:01:25.114Z,92867.00
2023-04-30T00:02:25.180Z,92865.00
2023-04-30T00:03:25.288Z,92865.00
2023-04-30T00:04:25.237Z,92865.00
2023-04-30T00:05:26.143Z,92869.00
2023-04-30T00:06:27.505Z,92869.00
2023-04-30T00:07:25.217Z,92867.00
2023-04-30T00:08:25.240Z,92869.00
2023-04-30T00:09:25.249Z,92869.00
2023-04-30T00:10:25.255Z,92871.00
2023-04-30T00:11:25.265Z,92871.00
2023-04-30T00:12:25.281Z,92869.00
2023-04-30T00:13:25.300Z,92871.00
2023-04-30T00:14:25.314Z,92871.00
2023-04-30T00:15:25.346Z,92871.00
2023-04-30T00:16:25.379Z,92871.00
2023-04-30T00:17:25.378Z,92873.00
2023-04-30T00:18:25.391Z,92871.00
2023-04-30T00:19:25.399Z,92871.00
2023-04-30T00:20:25.416Z,92871.00
2023-04-30T00:21:25.429Z,92871.00
2023-04-30T00:22:25.440Z,92871.00
2023-04-30T00:23:25.451Z,92869.00
2023-04-30T00:24:25.477Z,92871.00
2023-04-30T00:25:25.478Z,92869.00
2023-04-30T00:26:25.510Z,92869.00
2023-04-30T00:27:25.526Z,92869.00
2023-04-30T00:28:25.513Z,92869.00
2023-04-30T00:29:25.535Z,92871.00
2023-04-30T00:30:25.551Z,92867.00
2023-04-30T00:31:25.568Z,92869.00
2023-04-30T00:32:25.692Z,92867.00
2023-04-30T00:33:25.584Z,92865.00
2023-04-30T00:34:25.595Z,92861.00
2023-04-30T00:35:25.623Z,92861.00
2023-04-30T00:36:25.637Z,92865.00
2023-04-30T00:37:25.646Z,92863.00
2023-04-30T00:38:25.657Z,92861.00
2023-04-30T00:39:25.682Z,92863.00
2023-04-30T00:40:25.709Z,92863.00
2023-04-30T00:41:25.705Z,92863.00
2023-04-30T00:42:25.774Z,92863.00
2023-04-30T00:43:25.761Z,92863.00
2023-04-30T00:44:25.771Z,92865.00
2023-04-30T00:45:25.778Z,92863.00
2023-04-30T00:46:25.967Z,92863.00
2023-04-30T00:47:25.824Z,92865.00
2023-04-30T00:48:25.814Z,92861.00
2023-04-30T00:49:25.845Z,92863.00
2023-04-30T00:50:25.856Z,92861.00
2023-04-30T00:51:25.869Z,92861.00
2023-04-30T00:52:26.658Z,92861.00
2023-04-30T00:53:25.910Z,92861.00
2023-04-30T00:54:25.921Z,92861.00
2023-04-30T00:55:25.931Z,92859.00
2023-04-30T00:56:25.969Z,92859.00
2023-04-30T00:57:25.978Z,92857.00
2023-04-30T00:58:26.082Z,92857.00
2023-04-30T00:59:26.013Z,92855.00
2023-04-30T01:00:26.031Z,92855.00
2023-04-30T01:01:26.082Z,92853.00
2023-04-30T01:02:26.724Z,92855.00
2023-04-30T01:03:26.248Z,92855.00
2023-04-30T01:04:26.112Z,92857.00
2023-04-30T01:05:26.130Z,92857.00
2023-04-30T01:06:26.246Z,92855.00
2023-04-30T01:07:26.163Z,92855.00
2023-04-30T01:08:26.182Z,92855.00
2023-04-30T01:09:26.211Z,92855.00
2023-04-30T01:10:26.230Z,92855.00
2023-04-30T01:11:26.252Z,92853.00
2023-04-30T01:12:26.264Z,92853.00
2023-04-30T01:13:26.274Z,92849.00
2023-04-30T01:14:26.284Z,92853.00
2023-04-30T01:15:26.291Z,92847.00
2023-04-30T01:16:26.388Z,92849.00
2023-04-30T01:17:26.334Z,92847.00
2023-04-30T01:18:26.428Z,92840.00
2023-04-30T01:19:26.366Z,92840.00
2023-04-30T01:20:26.391Z,92840.00
2023-04-30T01:21:26.405Z,92840.00
2023-04-30T01:22:26.428Z,92838.00
2023-04-30T01:23:26.458Z,92840.00
2023-04-30T01:24:26.460Z,92838.00
2023-04-30T01:25:26.666Z,92836.00
2023-04-30T01:26:26.490Z,92832.00
2023-04-30T01:27:26.503Z,92836.00
2023-04-30T01:28:26.514Z,92836.00
2023-04-30T01:29:26.535Z,92836.00
2023-04-30T01:30:27.162Z,92836.00
2023-04-30T01:31:26.574Z,92836.00
2023-04-30T01:32:26.648Z,92836.00
2023-04-30T01:33:26.598Z,92847.00
2023-04-30T01:34:26.625Z,92838.00
2023-04-30T01:35:26.631Z,92838.00
2023-04-30T01:36:26.651Z,92838.00
2023-04-30T01:37:26.660Z,92838.00
2023-04-30T01:38:26.690Z,92847.00
2023-04-30T01:39:26.688Z,92847.00
2023-04-30T01:40:26.700Z,92847.00
2023-04-30T01:41:26.713Z,92838.00
2023-04-30T01:42:26.727Z,92838.00
2023-04-30T01:43:26.732Z,92836.00
2023-04-30T01:44:26.745Z,92838.00
2023-04-30T01:45:26.758Z,92847.00
2023-04-30T01:46:27.795Z,92838.00
2023-04-30T01:47:26.797Z,92838.00
2023-04-30T01:48:26.809Z,92847.00
2023-04-30T01:49:26.819Z,92840.00
2023-04-30T01:50:26.829Z,92838.00
2023-04-30T01:51:26.830Z,92847.00
2023-04-30T01:52:26.835Z,92838.00
2023-04-30T01:53:26.843Z,92840.00
2023-04-30T01:54:26.870Z,92836.00
2023-04-30T01:55:26.873Z,92840.00
2023-04-30T01:56:26.879Z,92847.00
2023-04-30T01:57:26.878Z,92847.00
2023-04-30T01:58:26.893Z,92849.00
2023-04-30T01:59:26.905Z,92851.00
2023-04-30T02:00:26.926Z,92849.00
2023-04-30T02:01:26.985Z,92840.00
2023-04-30T02:02:27.026Z,92851.00
2023-04-30T02:03:27.127Z,92851.00
2023-04-30T02:04:26.991Z,92849.00
2023-04-30T02:05:27.016Z,92849.00
2023-04-30T02:06:27.037Z,92849.00
2023-04-30T02:07:27.036Z,92853.00
2023-04-30T02:08:27.047Z,92853.00
2023-04-30T02:09:27.058Z,92855.00
2023-04-30T02:10:27.087Z,92855.00
2023-04-30T02:11:27.087Z,92857.00
2023-04-30T02:12:27.089Z,92857.00
2023-04-30T02:13:27.102Z,92857.00
2023-04-30T02:14:27.103Z,92857.00
2023-04-30T02:15:27.121Z,92857.00
2023-04-30T02:16:27.188Z,92857.00
2023-04-30T02:17:27.149Z,92857.00
2023-04-30T02:18:27.159Z,92855.00
2023-04-30T02:19:27.175Z,92855.00
2023-04-30T02:20:27.269Z,92855.00
2023-04-30T02:21:27.243Z,92855.00
2023-04-30T02:22:27.255Z,92857.00
2023-04-30T02:23:27.295Z,92853.00
2023-04-30T02:24:27.320Z,92851.00
2023-04-30T02:25:27.357Z,92853.00
2023-04-30T02:26:27.385Z,92853.00
2023-04-30T02:27:27.410Z,92853.00
2023-04-30T02:28:27.443Z,92855.00
2023-04-30T02:29:27.463Z,92855.00
2023-04-30T02:30:27.498Z,92853.00
2023-04-30T02:31:27.562Z,92853.00
2023-04-30T02:32:27.608Z,92853.00
2023-04-30T02:33:27.625Z,92851.00
2023-04-30T02:34:27.611Z,92853.00
2023-04-30T02:35:27.633Z,92853.00
2023-04-30T02:36:27.664Z,92849.00
2023-04-30T02:37:27.687Z,92853.00
2023-04-30T02:38:27.741Z,92853.00
2023-04-30T02:39:27.748Z,92855.00
2023-04-30T02:40:27.766Z,92855.00
2023-04-30T02:41:27.800Z,92857.00
2023-04-30T02:42:27.826Z,92857.00
2023-04-30T02:43:27.855Z,92857.00
2023-04-30T02:44:27.885Z,92859.00
2023-04-30T02:45:27.956Z,92855.00
2023-04-30T02:46:27.942Z,92859.00
2023-04-30T02:47:27.972Z,92855.00
2023-04-30T02:48:27.990Z,92855.00
2023-04-30T02:49:28.028Z,92853.00
2023-04-30T02:50:28.047Z,92851.00
2023-04-30T02:51:28.075Z,92851.00
2023-04-30T02:52:28.098Z,92849.00
2023-04-30T02:53:28.134Z,92849.00
2023-04-30T02:54:28.158Z,92849.00
2023-04-30T02:55:28.191Z,92849.00
2023-04-30T02:56:28.230Z,92851.00
2023-04-30T02:57:28.248Z,92849.00
2023-04-30T02:58:28.285Z,92849.00
2023-04-30T02:59:28.310Z,92847.00
2023-04-30T03:00:28.329Z,92847.00
2023-04-30T03:01:28.416Z,92847.00
2023-04-30T03:02:28.446Z,92840.00
2023-04-30T03:03:28.473Z,92840.00
2023-04-30T03:04:28.454Z,92840.00
2023-04-30T03:05:28.483Z,92838.00
2023-04-30T03:06:28.565Z,92834.00
2023-04-30T03:07:28.538Z,92832.00
2023-04-30T03:08:28.574Z,92834.00
2023-04-30T03:09:28.610Z,92828.00
2023-04-30T03:10:28.646Z,92830.00
2023-04-30T03:11:28.672Z,92830.00
2023-04-30T03:12:28.691Z,92832.00
2023-04-30T03:13:28.741Z,92830.00
2023-04-30T03:14:28.773Z,92832.00
2023-04-30T03:15:28.798Z,92830.00
2023-04-30T03:16:28.882Z,92830.00
2023-04-30T03:17:28.906Z,92830.00
2023-04-30T03:18:28.898Z,92828.00
2023-04-30T03:19:28.958Z,92826.00
2023-04-30T03:20:28.966Z,92824.00
2023-04-30T03:21:28.989Z,92826.00
2023-04-30T03:22:29.026Z,92828.00
2023-04-30T03:23:29.082Z,92830.00
2023-04-30T03:24:29.098Z,92830.00
2023-04-30T03:25:29.140Z,92826.00
2023-04-30T03:26:29.177Z,92832.00
2023-04-30T03:27:29.200Z,92834.00
2023-04-30T03:28:29.237Z,92834.00
2023-04-30T03:29:29.261Z,92836.00
2023-04-30T03:30:29.314Z,92838.00
2023-04-30T03:31:29.393Z,92838.00
2023-04-30T03:32:29.396Z,92834.00
2023-04-30T03:33:29.437Z,92838.00
2023-04-30T03:34:29.421Z,92836.00
2023-04-30T03:35:29.458Z,92840.00
2023-04-30T03:36:29.501Z,92836.00
2023-04-30T03:37:29.530Z,92834.00
2023-04-30T03:38:29.568Z,92834.00
2023-04-30T03:39:29.606Z,92836.00
2023-04-30T03:40:29.646Z,92836.00
2023-04-30T03:41:29.693Z,92836.00
2023-04-30T03:42:29.699Z,92836.00
2023-04-30T03:43:29.830Z,92836.00
2023-04-30T03:44:29.786Z,92830.00
2023-04-30T03:45:29.817Z,92832.00
2023-04-30T03:46:29.897Z,92834.00
2023-04-30T03:47:29.949Z,92834.00
2023-04-30T03:48:29.920Z,92834.00
2023-04-30T03:49:29.942Z,92834.00
2023-04-30T03:50:29.969Z,92834.00
2023-04-30T03:51:30.003Z,92832.00
2023-04-30T03:52:30.031Z,92838.00
2023-04-30T03:53:30.054Z,92840.00
2023-04-30T03:54:30.053Z,92834.00
2023-04-30T03:55:30.063Z,92836.00
2023-04-30T03:56:30.074Z,92836.00
2023-04-30T03:57:30.079Z,92834.00
2023-04-30T03:58:30.091Z,92836.00
2023-04-30T03:59:30.109Z,92836.00
2023-04-30T04:00:30.099Z,92836.00
2023-04-30T04:01:30.123Z,92834.00
2023-04-30T04:02:30.136Z,92836.00
2023-04-30T04:03:30.145Z,92836.00
2023-04-30T04:04:30.210Z,92834.00
2023-04-30T04:05:30.152Z,92830.00
2023-04-30T04:06:30.180Z,92834.00
2023-04-30T04:07:30.179Z,92832.00
2023-04-30T04:08:30.196Z,92832.00
2023-04-30T04:09:30.209Z,92836.00
2023-04-30T04:10:30.221Z,92832.00
2023-04-30T04:11:30.231Z,92838.00
2023-04-30T04:12:30.323Z,92838.00
2023-04-30T04:13:30.279Z,92832.00
2023-04-30T04:14:30.329Z,92832.00
2023-04-30T04:15:30.347Z,92832.00
2023-04-30T04:16:30.429Z,92828.00
2023-04-30T04:17:30.456Z,92828.00
2023-04-30T04:18:30.480Z,92830.00
2023-04-30T04:19:30.516Z,92828.00
2023-04-30T04:20:30.578Z,92830.00
2023-04-30T04:21:30.584Z,92832.00
2023-04-30T04:22:30.622Z,92832.00
2023-04-30T04:23:30.663Z,92832.00
2023-04-30T04:24:30.722Z,92834.00
2023-04-30T04:25:30.758Z,92836.00
2023-04-30T04:26:30.791Z,92836.00
2023-04-30T04:27:30.822Z,92836.00
2023-04-30T04:28:30.880Z,92836.00
2023-04-30T04:29:30.904Z,92834.00
2023-04-30T04:30:30.962Z,92834.00
2023-04-30T04:31:31.064Z,92832.00
2023-04-30T04:32:31.073Z,92834.00
2023-04-30T04:33:31.084Z,92832.00
2023-04-30T04:34:31.120Z,92834.00
2023-04-30T04:35:31.164Z,92834.00
2023-04-30T04:36:31.228Z,92832.00
2023-04-30T04:37:31.260Z,92832.00
2023-04-30T04:38:31.303Z,92834.00
2023-04-30T04:39:31.359Z,92836.00
2023-04-30T04:40:31.846Z,92832.00
2023-04-30T04:41:31.449Z,92832.00
2023-04-30T04:42:31.499Z,92832.00
2023-04-30T04:43:31.537Z,92832.00
2023-04-30T04:44:31.547Z,92832.00
2023-04-30T04:45:31.558Z,92830.00
2023-04-30T04:46:31.698Z,92832.00
2023-04-30T04:47:31.652Z,92830.00
2023-04-30T04:48:31.606Z,92832.00
2023-04-30T04:49:31.644Z,92832.00
2023-04-30T04:50:31.626Z,92832.00
2023-04-30T04:51:31.645Z,92832.00
2023-04-30T04:52:31.670Z,92832.00
2023-04-30T04:53:33.539Z,92834.00
2023-04-30T04:54:31.689Z,92834.00
2023-04-30T04:55:31.701Z,92834.00
2023-04-30T04:56:31.709Z,92834.00
2023-04-30T04:57:31.714Z,92832.00
2023-04-30T04:58:31.731Z,92834.00
2023-04-30T04:59:31.782Z,92830.00
2023-04-30T05:00:31.759Z,92832.00
2023-04-30T05:01:31.820Z,92830.00
2023-04-30T05:02:31.881Z,92832.00
2023-04-30T05:03:31.877Z,92832.00
2023-04-30T05:04:31.815Z,92832.00
2023-04-30T05:05:31.840Z,92830.00
2023-04-30T05:06:31.902Z,92832.00
2023-04-30T05:07:31.860Z,92834.00
2023-04-30T05:08:31.874Z,92834.00
2023-04-30T05:09:31.887Z,92834.00
2023-04-30T05:10:31.905Z,92836.00
2023-04-30T05:11:31.908Z,92834.00
2023-04-30T05:12:31.921Z,92836.00
2023-04-30T05:13:31.924Z,92836.00
2023-04-30T05:14:31.956Z,92840.00
2023-04-30T05:15:32.018Z,92840.00
2023-04-30T05:16:32.056Z,92840.00
2023-04-30T05:17:32.107Z,92847.00
2023-04-30T05:18:32.134Z,92840.00
2023-04-30T05:19:32.173Z,92840.00
2023-04-30T05:20:32.215Z,92840.00
2023-04-30T05:21:32.262Z,92840.00
2023-04-30T05:22:32.294Z,92847.00
2023-04-30T05:23:32.329Z,92847.00
2023-04-30T05:24:32.381Z,92840.00
2023-04-30T05:25:32.408Z,92847.00
2023-04-30T05:26:32.739Z,92840.00
2023-04-30T05:27:32.493Z,92847.00
2023-04-30T05:28:32.536Z,92838.00
2023-04-30T05:29:32.575Z,92840.00
2023-04-30T05:30:32.615Z,92838.00
2023-04-30T05:31:32.710Z,92838.00
2023-04-30T05:32:32.831Z,92836.00
2023-04-30T05:33:32.738Z,92836.00
2023-04-30T05:34:32.783Z,92834.00
2023-04-30T05:35:32.832Z,92834.00
2023-04-30T05:36:32.865Z,92832.00
2023-04-30T05:37:32.922Z,92832.00
2023-04-30T05:38:32.967Z,92832.00
2023-04-30T05:39:33.009Z,92832.00
2023-04-30T05:40:33.033Z,92830.00
2023-04-30T05:41:33.095Z,92832.00
2023-04-30T05:42:33.118Z,92832.00
2023-04-30T05:43:33.158Z,92834.00
2023-04-30T05:44:33.216Z,92836.00
2023-04-30T05:45:33.291Z,92836.00
2023-04-30T05:46:33.304Z,92836.00
2023-04-30T05:47:33.365Z,92836.00
2023-04-30T05:48:33.365Z,92836.00
2023-04-30T05:49:35.772Z,92834.00
2023-04-30T05:50:33.411Z,92834.00
2023-04-30T05:51:33.429Z,92836.00
2023-04-30T05:52:33.441Z,92836.00
2023-04-30T05:53:33.445Z,92834.00
2023-04-30T05:54:33.456Z,92838.00
2023-04-30T05:55:33.467Z,92838.00
2023-04-30T05:56:33.481Z,92838.00
2023-04-30T05:57:33.491Z,92838.00
2023-04-30T05:58:33.506Z,92836.00
2023-04-30T05:59:33.525Z,92838.00
2023-04-30T06:00:33.536Z,92836.00
2023-04-30T06:01:33.568Z,92836.00
2023-04-30T06:02:33.611Z,92838.00
2023-04-30T06:03:33.568Z,92836.00
2023-04-30T06:04:33.590Z,92836.00
2023-04-30T06:05:33.689Z,92838.00
2023-04-30T06:06:33.745Z,92836.00
2023-04-30T06:07:33.625Z,92838.00
2023-04-30T06:08:33.644Z,92836.00
2023-04-30T06:09:33.663Z,92840.00
2023-04-30T06:10:33.687Z,92836.00
2023-04-30T06:11:33.704Z,92836.00
2023-04-30T06:12:33.703Z,92838.00
2023-04-30T06:13:33.826Z,92838.00
2023-04-30T06:14:33.722Z,92840.00
2023-04-30T06:15:33.733Z,92840.00
2023-04-30T06:16:33.789Z,92847.00
2023-04-30T06:17:33.846Z,92847.00
2023-04-30T06:18:33.758Z,92847.00
2023-04-30T06:19:33.772Z,92851.00
2023-04-30T06:20:33.776Z,92849.00
2023-04-30T06:21:33.786Z,92853.00
2023-04-30T06:22:33.798Z,92853.00
2023-04-30T06:23:33.822Z,92851.00
2023-04-30T06:24:33.831Z,92851.00
2023-04-30T06:25:33.835Z,92851.00
2023-04-30T06:26:35.439Z,92851.00
2023-04-30T06:27:33.858Z,92849.00
2023-04-30T06:28:33.870Z,92851.00
2023-04-30T06:29:33.890Z,92849.00
2023-04-30T06:30:33.894Z,92847.00
2023-04-30T06:31:33.942Z,92847.00
2023-04-30T06:32:33.947Z,92849.00
2023-04-30T06:33:33.930Z,92847.00
2023-04-30T06:34:34.265Z,92847.00
2023-04-30T06:35:33.963Z,92847.00
2023-04-30T06:36:33.981Z,92847.00
2023-04-30T06:37:34.029Z,92847.00
2023-04-30T06:38:34.082Z,92840.00
2023-04-30T06:39:34.121Z,92847.00
2023-04-30T06:40:34.163Z,92847.00
2023-04-30T06:41:34.203Z,92838.00
2023-04-30T06:42:34.257Z,92838.00
2023-04-30T06:43:34.298Z,92838.00
2023-04-30T06:44:34.356Z,92838.00
2023-04-30T06:45:34.396Z,92838.00
2023-04-30T06:46:34.572Z,92838.00
2023-04-30T06:47:34.568Z,92840.00
2023-04-30T06:48:34.544Z,92840.00
2023-04-30T06:49:34.601Z,92838.00
2023-04-30T06:50:34.643Z,92840.00
2023-04-30T06:51:34.685Z,92838.00
2023-04-30T06:52:34.739Z,92840.00
2023-04-30T06:53:34.796Z,92849.00
2023-04-30T06:54:34.850Z,92847.00
2023-04-30T06:55:34.890Z,92851.00
2023-04-30T06:56:34.890Z,92849.00
2023-04-30T06:57:34.920Z,92847.00
2023-04-30T06:58:34.916Z,92847.00
2023-04-30T06:59:34.941Z,92847.00
2023-04-30T07:00:35.764Z,92840.00
2023-04-30T07:01:34.987Z,92849.00
2023-04-30T07:02:35.059Z,92849.00
2023-04-30T07:03:35.130Z,92851.00
2023-04-30T07:04:35.271Z,92851.00
2023-04-30T07:05:35.015Z,92851.00
2023-04-30T07:06:35.068Z,92851.00
2023-04-30T07:07:35.047Z,92849.00
2023-04-30T07:08:35.028Z,92849.00
2023-04-30T07:09:35.050Z,92849.00
2023-04-30T07:10:35.063Z,92851.00
2023-04-30T07:11:35.083Z,92851.00
2023-04-30T07:12:35.134Z,92851.00
2023-04-30T07:13:35.188Z,92853.00
2023-04-30T07:14:35.212Z,92851.00
2023-04-30T07:15:35.323Z,92851.00
2023-04-30T07:16:35.331Z,92853.00
2023-04-30T07:17:35.370Z,92855.00
2023-04-30T07:18:35.383Z,92853.00
2023-04-30T07:19:35.449Z,92855.00
2023-04-30T07:20:35.489Z,92853.00
2023-04-30T07:21:35.545Z,92853.00
2023-04-30T07:22:35.589Z,92853.00
2023-04-30T07:23:35.619Z,92851.00
2023-04-30T07:24:35.779Z,92853.00
2023-04-30T07:25:35.724Z,92853.00
2023-04-30T07:26:35.760Z,92851.00
2023-04-30T07:27:36.282Z,92849.00
2023-04-30T07:28:35.845Z,92851.00
2023-04-30T07:29:35.886Z,92849.00
2023-04-30T07:30:35.949Z,92849.00
2023-04-30T07:31:36.059Z,92849.00
2023-04-30T07:32:36.101Z,92849.00
2023-04-30T07:33:36.074Z,92851.00
2023-04-30T07:34:36.141Z,92851.00
2023-04-30T07:35:36.182Z,92851.00
2023-04-30T07:36:36.226Z,92849.00
2023-04-30T07:37:36.439Z,92853.00
2023-04-30T07:38:36.340Z,92847.00
2023-04-30T07:39:36.375Z,92847.00
2023-04-30T07:40:36.798Z,92840.00
2023-04-30T07:41:36.468Z,92840.00
2023-04-30T07:42:36.517Z,92838.00
2023-04-30T07:43:36.571Z,92838.00
2023-04-30T07:44:36.631Z,92838.00
2023-04-30T07:45:36.671Z,92836.00
2023-04-30T07:46:36.843Z,92836.00
2023-04-30T07:47:36.793Z,92834.00
2023-04-30T07:48:36.792Z,92834.00
2023-04-30T07:49:36.833Z,92834.00
2023-04-30T07:50:36.888Z,92832.00
2023-04-30T07:51:36.927Z,92830.00
2023-04-30T07:52:36.924Z,92832.00
2023-04-30T07:53:36.925Z,92832.00
2023-04-30T07:54:36.925Z,92830.00
2023-04-30T07:55:36.910Z,92828.00
2023-04-30T07:56:36.907Z,92830.00
2023-04-30T07:57:36.911Z,92830.00
2023-04-30T07:58:36.904Z,92828.00
2023-04-30T07:59:36.924Z,92830.00
2023-04-30T08:00:36.892Z,92830.00
2023-04-30T08:01:36.911Z,92826.00
2023-04-30T08:02:37.013Z,92824.00
2023-04-30T08:03:36.984Z,92824.00
2023-04-30T08:04:36.955Z,92824.00
2023-04-30T08:05:36.992Z,92826.00
2023-04-30T08:06:37.051Z,92826.00
2023-04-30T08:07:37.088Z,92826.00
2023-04-30T08:08:37.107Z,92822.00
2023-04-30T08:09:37.154Z,92826.00
2023-04-30T08:10:37.180Z,92822.00
2023-04-30T08:11:37.238Z,92824.00
2023-04-30T08:12:37.255Z,92826.00
2023-04-30T08:13:37.303Z,92826.00
2023-04-30T08:14:37.328Z,92826.00
2023-04-30T08:15:37.413Z,92826.00
2023-04-30T08:16:37.435Z,92828.00
2023-04-30T08:17:37.559Z,92824.00
2023-04-30T08:18:37.481Z,92826.00
2023-04-30T08:19:37.540Z,92824.00
2023-04-30T08:20:38.600Z,92824.00
2023-04-30T08:21:37.700Z,92824.00
2023-04-30T08:22:37.678Z,92822.00
2023-04-30T08:23:37.679Z,92820.00
2023-04-30T08:24:37.726Z,92820.00
2023-04-30T08:25:37.771Z,92822.00
2023-04-30T08:26:37.807Z,92820.00
2023-04-30T08:27:37.855Z,92820.00
2023-04-30T08:28:37.854Z,92820.00
2023-04-30T08:29:37.844Z,92818.00
2023-04-30T08:30:37.843Z,92816.00
2023-04-30T08:31:37.922Z,92818.00
2023-04-30T08:32:37.880Z,92818.00
2023-04-30T08:33:37.865Z,92820.00
2023-04-30T08:34:37.844Z,92818.00
2023-04-30T08:35:37.843Z,92820.00
2023-04-30T08:36:37.838Z,92822.00
2023-04-30T08:37:37.831Z,92818.00
2023-04-30T08:38:37.834Z,92816.00
2023-04-30T08:39:37.828Z,92820.00
2023-04-30T08:40:51.135Z,92818.00
2023-04-30T08:41:38.838Z,92816.00
2023-04-30T08:42:37.833Z,92816.00
2023-04-30T08:43:37.835Z,92814.00
2023-04-30T08:44:37.839Z,92814.00
2023-04-30T08:45:37.827Z,92816.00
2023-04-30T08:46:37.925Z,92814.00
2023-04-30T08:47:37.871Z,92816.00
2023-04-30T08:48:37.831Z,92816.00
2023-04-30T08:49:37.832Z,92814.00
2023-04-30T08:50:38.027Z,92814.00
2023-04-30T08:51:37.825Z,92812.00
2023-04-30T08:52:37.818Z,92812.00
2023-04-30T08:53:37.855Z,92810.00
2023-04-30T08:54:37.817Z,92812.00
2023-04-30T08:55:37.837Z,92812.00
2023-04-30T08:56:37.884Z,92814.00
2023-04-30T08:57:37.912Z,92814.00
2023-04-30T08:58:37.949Z,92816.00
2023-04-30T08:59:37.994Z,92816.00
2023-04-30T09:00:38.029Z,92814.00
2023-04-30T09:01:38.060Z,92814.00
2023-04-30T09:02:38.161Z,92816.00
2023-04-30T09:03:38.231Z,92816.00
2023-04-30T09:04:38.194Z,92814.00
2023-04-30T09:05:38.232Z,92812.00
2023-04-30T09:06:38.297Z,92814.00
2023-04-30T09:07:39.870Z,92812.00
2023-04-30T09:08:38.288Z,92810.00
2023-04-30T09:09:38.286Z,92808.00
2023-04-30T09:10:38.294Z,92806.00
2023-04-30T09:11:38.306Z,92806.00
2023-04-30T09:12:38.301Z,92806.00
2023-04-30T09:13:38.302Z,92804.00
2023-04-30T09:14:38.296Z,92804.00
2023-04-30T09:15:38.312Z,92804.00
2023-04-30T09:16:38.293Z,92802.00
2023-04-30T09:17:38.384Z,92804.00
2023-04-30T09:18:38.315Z,92806.00
2023-04-30T09:19:38.315Z,92808.00
2023-04-30T09:20:38.353Z,92806.00
2023-04-30T09:21:38.326Z,92804.00
2023-04-30T09:22:38.324Z,92802.00
2023-04-30T09:23:38.316Z,92802.00
2023-04-30T09:24:38.322Z,92801.00
2023-04-30T09:25:38.314Z,92799.00
2023-04-30T09:26:38.317Z,92799.00
2023-04-30T09:27:38.326Z,92799.00
2023-04-30T09:28:38.312Z,92799.00
2023-04-30T09:29:38.334Z,92795.00
2023-04-30T09:30:38.317Z,92797.00
2023-04-30T09:31:38.488Z,92793.00
2023-04-30T09:32:38.336Z,92791.00
2023-04-30T09:33:38.324Z,92791.00
2023-04-30T09:34:38.317Z,92787.00
2023-04-30T09:35:38.317Z,92785.00
2023-04-30T09:36:38.315Z,92787.00
2023-04-30T09:37:38.383Z,92787.00
2023-04-30T09:38:38.322Z,92789.00
2023-04-30T09:39:38.319Z,92783.00
2023-04-30T09:40:38.319Z,92781.00
2023-04-30T09:41:38.317Z,92783.00
2023-04-30T09:42:38.329Z,92781.00
2023-04-30T09:43:38.345Z,92779.00
2023-04-30T09:44:38.326Z,92777.00
2023-04-30T09:45:38.317Z,92781.00
2023-04-30T09:46:38.405Z,92779.00
2023-04-30T09:47:38.346Z,92775.00
2023-04-30T09:48:38.338Z,92777.00
2023-04-30T09:49:38.326Z,92773.00
2023-04-30T09:50:38.326Z,92771.00
2023-04-30T09:51:38.338Z,92771.00
2023-04-30T09:52:38.335Z,92771.00
2023-04-30T09:53:38.321Z,92767.00
2023-04-30T09:54:38.318Z,92767.00
2023-04-30T09:55:38.324Z,92767.00
2023-04-30T09:56:38.325Z,92767.00
2023-04-30T09:57:38.302Z,92765.00
2023-04-30T09:58:38.341Z,92769.00
2023-04-30T09:59:38.322Z,92767.00
2023-04-30T10:00:38.348Z,92767.00
2023-04-30T10:01:40.861Z,92767.00
2023-04-30T10:02:38.361Z,92763.00
2023-04-30T10:03:38.341Z,92763.00
2023-04-30T10:04:38.299Z,92761.00
2023-04-30T10:05:38.292Z,92765.00
2023-04-30T10:06:38.326Z,92767.00
2023-04-30T10:07:38.275Z,92761.00
2023-04-30T10:08:38.286Z,92761.00
2023-04-30T10:09:38.256Z,92761.00
2023-04-30T10:10:38.257Z,92761.00
2023-04-30T10:11:38.269Z,92759.00
2023-04-30T10:12:38.239Z,92755.00
2023-04-30T10:13:38.235Z,92759.00
2023-04-30T10:14:38.232Z,92761.00
2023-04-30T10:15:38.238Z,92755.00
2023-04-30T10:16:38.381Z,92754.00
2023-04-30T10:17:38.235Z,92755.00
2023-04-30T10:18:38.230Z,92755.00
2023-04-30T10:19:38.234Z,92746.00
2023-04-30T10:20:38.239Z,92738.00
2023-04-30T10:21:38.217Z,92744.00
2023-04-30T10:22:38.213Z,92740.00
2023-04-30T10:23:38.214Z,92734.00
2023-04-30T10:24:38.208Z,92738.00
2023-04-30T10:25:38.205Z,92734.00
2023-04-30T10:26:38.199Z,92732.00
2023-04-30T10:27:38.204Z,92730.00
2023-04-30T10:28:38.189Z,92734.00
2023-04-30T10:29:38.181Z,92732.00
2023-04-30T10:30:38.180Z,92734.00
2023-04-30T10:31:38.186Z,92728.00
2023-04-30T10:32:38.220Z,92724.00
2023-04-30T10:33:38.175Z,92722.00
2023-04-30T10:34:38.176Z,92724.00
2023-04-30T10:35:38.158Z,92718.00
2023-04-30T10:36:38.236Z,92720.00
2023-04-30T10:37:38.172Z,92714.00
2023-04-30T10:38:38.154Z,92716.00
2023-04-30T10:39:38.160Z,92710.00
2023-04-30T10:40:38.170Z,92712.00
2023-04-30T10:41:38.163Z,92710.00
2023-04-30T10:42:38.163Z,92708.00
2023-04-30T10:43:38.156Z,92707.00
2023-04-30T10:44:38.150Z,92705.00
2023-04-30T10:45:38.296Z,92705.00
2023-04-30T10:46:38.250Z,92701.00
2023-04-30T10:47:38.216Z,92705.00
2023-04-30T10:48:38.242Z,92697.00
2023-04-30T10:49:38.308Z,92697.00
2023-04-30T10:50:38.379Z,92697.00
2023-04-30T10:51:38.409Z,92699.00
2023-04-30T10:52:38.462Z,92697.00
2023-04-30T10:53:38.483Z,92695.00
2023-04-30T10:54:38.582Z,92691.00
2023-04-30T10:55:38.604Z,92695.00
2023-04-30T10:56:38.652Z,92697.00
2023-04-30T10:57:38.698Z,92689.00
2023-04-30T10:58:38.876Z,92689.00
2023-04-30T10:59:38.796Z,92691.00
2023-04-30T11:00:38.847Z,92681.00
2023-04-30T11:01:38.922Z,92685.00
2023-04-30T11:02:39.008Z,92679.00
2023-04-30T11:03:38.990Z,92677.00
2023-04-30T11:04:39.060Z,92677.00
2023-04-30T11:05:39.059Z,92675.00
2023-04-30T11:06:39.144Z,92671.00
2023-04-30T11:07:39.124Z,92677.00
2023-04-30T11:08:40.140Z,92667.00
2023-04-30T11:09:39.133Z,92667.00
2023-04-30T11:10:39.141Z,92665.00
2023-04-30T11:11:39.141Z,92669.00
2023-04-30T11:12:39.145Z,92663.00
2023-04-30T11:13:39.145Z,92667.00
2023-04-30T11:14:39.155Z,92661.00
2023-04-30T11:15:39.184Z,92667.00
2023-04-30T11:16:39.248Z,92661.00
2023-04-30T11:17:39.206Z,92658.00
2023-04-30T11:18:39.169Z,92661.00
2023-04-30T11:19:39.192Z,92656.00
2023-04-30T11:20:39.248Z,92654.00
2023-04-30T11:21:39.247Z,92660.00
2023-04-30T11:22:39.287Z,92646.00
2023-04-30T11:23:42.100Z,92652.00
2023-04-30T11:24:39.313Z,92650.00
2023-04-30T11:25:39.322Z,92646.00
2023-04-30T11:26:39.328Z,92640.00
2023-04-30T11:27:39.338Z,92642.00
2023-04-30T11:28:39.336Z,92640.00
2023-04-30T11:29:39.350Z,92644.00
2023-04-30T11:30:39.356Z,92638.00
2023-04-30T11:31:39.409Z,92636.00
2023-04-30T11:32:39.438Z,92638.00
2023-04-30T11:33:39.363Z,92632.00
2023-04-30T11:34:39.386Z,92634.00
2023-04-30T11:35:39.370Z,92634.00
2023-04-30T11:36:39.375Z,92632.00
2023-04-30T11:37:39.377Z,92632.00
2023-04-30T11:38:39.377Z,92624.00
2023-04-30T11:39:39.376Z,92628.00
2023-04-30T11:40:39.375Z,92626.00
2023-04-30T11:41:39.383Z,92626.00
2023-04-30T11:42:39.393Z,92622.00
2023-04-30T11:43:39.403Z,92626.00
2023-04-30T11:44:39.406Z,92626.00